Micco, Florida
Current Conditions -  °F | °C
As of 1:53 PM on Monday 20 Oct 2014 (Local Time) from KVRB Reporting Station
Scattered Clouds Scattered Clouds  
Wind Chill: 82°   Ceiling: Unl
Heat Index: 84°   Visibility: 10mi
Dew Point: 65°   Wind: 9mph
Humidity: 56%   Direction: 90°E
Pressure: 29.99"   Gusts: NA
Location:  27.8606°N, 80.5442°W
Report Text: KVRB 201753Z 09008KT 060V130 10SM SCT040 28/18 A2999 RMK AO2 SLP154 T02780183 10278 20156
Loading
Personal Weather Stations






























Interactive Weather Map New forecast layout! Learn more

10-Day Weather Forecast

Advertisements
Track Severe Weather on mobile